x

La Perouse Bank (46206) Wave Buoy

12:00pm - Sun 25th Sep 2016 All times are PDT. -7 hours from GMT.

  • Sig Wave height 7.2ft
  • Peak Period 10s
  • Wind
    20mph, 25mph gusts
  • Sea Temp 56°f
  • Air Temp 54°f
  • Sea Pressure 1028.4mb
  • La Perouse Bank
  • La Perouse Bank

More Historic Weather Station data

Upgrade to MSW Pro to gain access to the past 30 days of data for over 8000 Wavebouys and Weather Stations around the globe.

Join Pro

Comparision Forecast

View Surf forecast
   
Sun 09/25 12:00pm 7ft 10s 20 25 mph 1028.4mb 56f 54f
11:00am 8ft 10s 20
mph
1028.5mb 56f 54f
10:00am 7.5ft 10s 22 27 mph 1028.4mb 56f 54f
9:00am 8ft 10s 22 27 mph 1028mb 56f 54f
8:00am 7.5ft 9s 22 27 mph 1027.7mb 56f 54f
7:00am 8.5ft 10s 20 27 mph 1027.4mb 56f 54f
6:00am  -   -  20
mph
1027.3mb 56f 54f
4:00am 8ft 10s 20 25 mph 1027.1mb 57f 54f
3:00am 7ft 10s 20 25 mph 1027mb 56f 55f
2:00am 7ft 9s 20 25 mph 1026.9mb 57f 56f
1:00am 6ft 10s 20 27 mph 1027.1mb 57f 55f
12:00am 5.5ft 10s 18 22 mph 1027.3mb 56f 55f
Sat 09/24 11:00pm 4.5ft 11s 18 22 mph 1027.1mb 56f 55f
10:00pm 4.5ft 11s 18 20 mph 1027mb 57f 55f
9:00pm 5ft 11s 16 18 mph 1027.1mb 56f 56f
8:00pm 5.5ft 11s 16 18 mph 1027mb 57f 55f
7:00pm 6.5ft 11s 16 18 mph 1026.4mb 57f 54f
6:00pm 7ft 11s 13 18 mph 1026.4mb 56f 55f
5:00pm 7.5ft 10s 16 20 mph 1026.4mb 56f 55f
4:00pm 7ft 11s 16 18 mph 1026.7mb 56f 55f
3:00pm 7ft 10s 16 18 mph 1026.9mb 56f 55f
2:00pm 6.5ft 10s 13 18 mph 1027.5mb 56f 55f
1:00pm 6ft 10s 16 18 mph 1027.4mb 56f 54f
12:00pm 6.5ft 11s 16 22 mph 1027.8mb 56f 54f
11:00am 6ft 11s 16 18 mph 1028.1mb 56f 54f
10:00am 6ft 11s 13 18 mph 1027.5mb 56f 54f
9:00am 7ft 11s 9 11 mph 1027.9mb 56f 54f
8:00am 7ft 11s 9 11 mph 1026.9mb 56f 53f
7:00am 7ft 12s 7 9 mph 1025.9mb 56f 53f
6:00am 8ft 12s 2 4 mph 1025.7mb 56f 54f
5:00am 9ft 12s 2 4 mph 1025.3mb 56f 55f
4:00am 9ft 12s 4 7 mph 1025.4mb 56f 55f
3:00am 10ft 12s 4 7 mph 1024.7mb 56f 55f
2:00am 11ft 12s 9 13 mph 1024.6mb 56f 55f
1:00am 12ft 11s 7 11 mph 1024.1mb 55f 55f
Fri 09/23 11:00pm 13ft 11s 11 16 mph 1022.4mb 55f 55f
10:00pm 12ft 11s 11 16 mph 1022.1mb 56f 55f
9:00pm 12ft 12s 18 22 mph 1021.4mb 56f 55f
8:00pm 11ft 11s 20 22 mph 1020.1mb 55f 55f
7:00pm 11ft 11s 20 25 mph 1018.9mb 55f 55f
6:00pm  -   -  20
mph
1017.6mb - 56f
5:00pm 10ft 11s 22 25 mph 1016.8mb 55f 56f
4:00pm 10ft 12s 20 25 mph 1016.1mb 55f 56f
3:00pm 10ft 13s 18 25 mph 1015.4mb 55f 55f
2:00pm 10.5ft 8s 18 22 mph 1014.3mb 55f 55f
1:00pm 10.5ft 9s 18 27 mph 1013.5mb 55f 53f
12:00pm 11.5ft 8s 25 29 mph 1010.7mb 55f 53f
11:00am 13ft 7s 27 38 mph 1009.5mb 55f 52f
10:00am 14ft 8s 34 45 mph 1008.6mb 55f 53f
8:00am 12.5ft 6s 38 47 mph 1007.7mb 56f 52f
7:00am  -   -  36
mph
1008.1mb - 52f
6:00am 10ft 6s 36 43 mph 1008.4mb 57f 53f
5:00am 9ft 10s 34 43 mph 1009.3mb 57f 54f
3:00am  -   -  29
mph
- - 55f
2:00am  -   -  27
mph
- - -
1:00am 4.5ft 12s 25
mph
1014mb 57f 56f
12:00am 3.5ft 13s 22 27 mph 1014.3mb 57f 57f
Thu 09/22 11:00pm 3ft 12s 18 22 mph 1014.7mb 57f 57f
10:00pm 3ft 13s 20 22 mph 1014.8mb 57f 56f
9:00pm 2.5ft 8s 18 20 mph 1016mb 57f 56f
8:00pm 2.5ft 8s 16 18 mph 1016.3mb 58f 56f
7:00pm 2.5ft 8s 13 18 mph 1016.6mb 58f 56f
6:00pm 2.5ft 8s 13 16 mph 1016.8mb 58f 56f
5:00pm 3ft 5s 9 11 mph 1017.4mb 59f 56f
4:00pm 3.5ft 5s 7 9 mph 1017.7mb 59f 55f
3:00pm 3.5ft 6s 4 7 mph 1017.5mb 59f 55f
2:00pm 3.5ft 6s 2 4 mph 1017.9mb 58f 56f
1:00pm 4ft 6s 4 7 mph 1018.1mb 58f 55f
12:00pm 4.5ft 7s 2 4 mph 1017.1mb 57f 56f
11:00am 4.5ft 8s 4
mph
1017.2mb 56f 54f
10:00am 5ft 7s 9 11 mph 1017.4mb 56f 54f
9:00am 5ft 6s 2
mph
1016.4mb 56f 54f
8:00am 5ft 9s 7 9 mph 1016.1mb 56f 54f
7:00am 5ft 7s 9 13 mph 1015.7mb 56f 54f
6:00am 5.5ft 7s 11 16 mph 1015.3mb 56f 55f
5:00am 5.5ft 7s 13 16 mph 1015.1mb 57f 55f
4:00am 5.5ft 7s 4 7 mph 1014.9mb 57f 55f
3:00am 6ft 7s 11 13 mph 1015.1mb 58f 54f
2:00am 6ft 7s 13 18 mph 1015.2mb 58f 54f
1:00am 5.5ft 7s 13 18 mph 1015.2mb 58f 55f
12:00am 5ft 10s 13 16 mph 1015.2mb 58f 55f
Wed 09/21 11:00pm 5ft 10s 11 13 mph 1015.3mb 58f 55f
10:00pm 5ft 10s 13 16 mph 1015.6mb 57f 55f
9:00pm 5ft 10s 13 18 mph 1016mb 57f 56f